Clearwater Beach, FL (33767)

2:16 PM EDT on March 30, 2017 (GMT -0400)
North Clearwater Beach | | Change Station

Elev 7 ft 27.99 °N, 82.82 °W | Updated 4 seconds ago

Clear
Clear
79.5 °F
Feels Like 81 °F
N
9.6
Wind Variable Wind from NW
Gusts 12.3 mph

Today
High -- | Low -- °F
--% Chance of Precip.
Yesterday
High -- | Low -- °F
Precip. -- in
Pressure 30.00 in
Visibility 10.0 miles
Clouds Few 5000 ft
Mostly Cloudy 6000 ft
Heat Index 81 °F
Dew Point 64 °F
Humidity 59%
Rainfall 0.00 in
Snow Depth Not available.
7:23 AM 7:48 PM
Waxing Crescent, 10% visible
METAR KPIE 301753Z 22011KT 10SM FEW050 BKN060 29/17 A3000 RMK AO2 SLP158 T02890172 10294 20183 50001
Pressure 30.00 in
Visibility 10.0 miles
Clouds Few 5000 ft
Mostly Cloudy 6000 ft
Heat Index 81 °F
Dew Point 64 °F
Humidity 59%
Rainfall 0.00 in
Snow Depth Not available.
7:23 AM 7:48 PM
Waxing Crescent, 10% visible
METAR KPIE 301753Z 22011KT 10SM FEW050 BKN060 29/17 A3000 RMK AO2 SLP158 T02890172 10294 20183 50001

Get Severe Weather Alerts

Thanks for signing up!

Be on the lookout for a verification email in your inbox.

You'll start receiving the daily forecast at 8 AM.

×

10-Day Weather Forecast

Almanac

Astronomy

Mar. 30, 2017 Rise Set
Actual Time
Civil Twilight
Nautical Twilight
Astronomical Twilight
Moon
Length of Visible Light
Length of Day
Tomorrow will be .
, % of the Moon is Illuminated

Today's Extremes

State Highs State Lows

Community

WunderPhotos

Upload Photos

1,962,540 photos uploaded!

WunderBlog® & News

Nearby

Air Quality

  Air Quality AQ Index Pollutant
Not available.

Snow Depth

Station Depth Elevation

Earthquake Activity

City Distance Mag. Time & Date
Minimum magnitude displayed is 2.5.

Earthquake Activity

City Distance Mag. Time & Date
Minimum magnitude displayed is 2.5.

Coastal Water Temperatures

Place Temperature

Stations

Nearby Weather Stations

Station Location Temp. Windchill Dew Point Humidity Wind Precip. Elev Updated Type
                   

Watches & Warnings

There are currently no watches in effect.